createdAt,value
2022-08-17T00:01:51.262Z,16.58
2022-08-17T00:04:20.376Z,10.13
2022-08-17T00:06:48.751Z,14.07
2022-08-17T00:09:18.728Z,17.58
2022-08-17T00:12:41.014Z,29.23
2022-08-17T00:14:36.090Z,23.15
2022-08-17T00:17:04.712Z,25.77
2022-08-17T00:19:32.870Z,20.48
2022-08-17T00:22:32.891Z,19.63
2022-08-17T00:24:50.363Z,17.92
2022-08-17T00:27:17.956Z,20.42
2022-08-17T00:29:45.886Z,13.50
2022-08-17T00:33:14.482Z,10.10
2022-08-17T00:35:06.317Z,20.45
2022-08-17T00:37:33.108Z,18.15
2022-08-17T00:39:59.970Z,26.08
2022-08-17T00:42:30.919Z,11.68
2022-08-17T00:44:58.630Z,11.85
2022-08-17T00:47:25.815Z,13.13
2022-08-17T00:49:52.727Z,10.65
2022-08-17T00:52:24.420Z,15.15
2022-08-17T00:54:55.113Z,15.40
2022-08-17T00:57:28.435Z,10.63
2022-08-17T01:00:03.747Z,7.70
2022-08-17T01:02:42.093Z,11.75
2022-08-17T01:05:16.460Z,15.35
2022-08-17T01:07:47.641Z,9.32
2022-08-17T01:10:59.040Z,16.20
2022-08-17T01:13:03.192Z,9.05
2022-08-17T01:15:32.710Z,7.35
2022-08-17T01:18:00.163Z,10.43
2022-08-17T01:20:27.085Z,9.82
2022-08-17T01:22:54.202Z,10.15
2022-08-17T01:25:21.768Z,10.32
2022-08-17T01:27:49.781Z,7.00
2022-08-17T01:30:57.027Z,8.05
2022-08-17T01:33:04.637Z,7.57
2022-08-17T01:35:36.351Z,13.65
2022-08-17T01:38:03.276Z,6.80
2022-08-17T01:40:47.227Z,12.73
2022-08-17T01:43:30.893Z,8.77
2022-08-17T01:46:02.498Z,12.27
2022-08-17T01:48:35.948Z,10.15
2022-08-17T01:51:03.483Z,8.75
2022-08-17T01:53:40.258Z,10.20
2022-08-17T01:56:10.194Z,9.98
2022-08-17T01:58:38.961Z,9.38
2022-08-17T02:01:06.798Z,10.85
2022-08-17T02:03:35.253Z,8.02
2022-08-17T02:06:02.749Z,8.02
2022-08-17T02:08:39.099Z,9.65
2022-08-17T02:11:22.752Z,10.20
2022-08-17T02:13:57.874Z,8.15
2022-08-17T02:16:36.933Z,9.15
2022-08-17T02:19:10.520Z,9.88
2022-08-17T02:24:08.736Z,7.15
2022-08-17T02:26:35.559Z,8.40
2022-08-17T02:29:04.098Z,10.57
2022-08-17T02:31:31.132Z,12.77
2022-08-17T02:34:04.235Z,12.30
2022-08-17T02:36:33.843Z,6.70
2022-08-17T02:39:12.052Z,9.43
2022-08-17T02:41:40.065Z,8.63
2022-08-17T02:44:07.730Z,8.43
2022-08-17T02:46:34.606Z,15.38
2022-08-17T02:49:01.417Z,13.13
2022-08-17T02:51:28.217Z,8.57
2022-08-17T02:54:03.885Z,11.57
2022-08-17T02:56:42.199Z,9.68
2022-08-17T02:59:08.975Z,11.55
2022-08-17T03:01:35.803Z,15.10
2022-08-17T03:04:02.773Z,10.38
2022-08-17T03:06:29.651Z,11.38
2022-08-17T03:08:56.427Z,9.77
2022-08-17T03:11:23.636Z,10.85
2022-08-17T03:13:50.398Z,9.13
2022-08-17T03:16:17.225Z,6.32
2022-08-17T03:18:43.986Z,12.52
2022-08-17T03:21:11.055Z,10.93
2022-08-17T03:23:41.128Z,11.75
2022-08-17T03:26:12.265Z,10.35
2022-08-17T03:28:42.642Z,10.77
2022-08-17T03:31:09.405Z,8.32
2022-08-17T03:33:36.157Z,12.35
2022-08-17T03:36:03.114Z,11.25
2022-08-17T03:38:29.929Z,10.18
2022-08-17T03:41:07.033Z,10.25
2022-08-17T03:43:34.679Z,8.32
2022-08-17T03:46:34.018Z,10.48
2022-08-17T03:49:25.123Z,11.85
2022-08-17T03:52:11.488Z,10.50
2022-08-17T03:54:58.005Z,11.10
2022-08-17T03:57:25.884Z,7.90
2022-08-17T03:59:54.088Z,9.95
2022-08-17T04:02:32.425Z,9.00
2022-08-17T04:04:59.726Z,12.25
2022-08-17T04:07:29.857Z,9.77
2022-08-17T04:09:58.103Z,9.25
2022-08-17T04:12:26.813Z,8.70
2022-08-17T04:14:54.928Z,8.15
2022-08-17T04:17:25.340Z,8.45
2022-08-17T04:19:52.929Z,7.53
2022-08-17T04:22:32.089Z,5.68
2022-08-17T04:25:07.889Z,6.55
2022-08-17T04:27:34.843Z,7.30
2022-08-17T04:30:02.155Z,6.95
2022-08-17T04:33:04.183Z,6.13
2022-08-17T04:35:25.936Z,6.97
2022-08-17T04:37:53.363Z,5.13
2022-08-17T04:40:40.799Z,6.55
2022-08-17T04:43:18.698Z,6.53
2022-08-17T04:45:51.450Z,6.60
2022-08-17T04:48:35.566Z,9.13
2022-08-17T04:51:09.870Z,8.45
2022-08-17T04:53:37.891Z,8.02
2022-08-17T04:56:04.910Z,8.32
2022-08-17T04:58:31.724Z,9.77
2022-08-17T05:00:58.641Z,8.20
2022-08-17T05:03:25.569Z,7.10
2022-08-17T05:05:52.332Z,8.27
2022-08-17T05:08:20.625Z,11.02
2022-08-17T05:10:48.408Z,6.65
2022-08-17T05:13:17.582Z,8.15
2022-08-17T05:15:47.819Z,10.68
2022-08-17T05:18:15.804Z,16.17
2022-08-17T05:20:42.807Z,14.43
2022-08-17T05:23:12.565Z,10.90
2022-08-17T05:25:42.706Z,10.18
2022-08-17T05:28:16.231Z,15.07
2022-08-17T05:30:44.324Z,10.60
2022-08-17T05:33:17.624Z,9.30
2022-08-17T05:35:49.271Z,10.43
2022-08-17T05:38:21.003Z,11.90
2022-08-17T05:40:47.900Z,11.37
2022-08-17T05:43:16.169Z,11.38
2022-08-17T05:45:56.439Z,14.57
2022-08-17T05:48:35.506Z,9.88
2022-08-17T05:51:25.708Z,8.20
2022-08-17T05:54:24.283Z,12.45
2022-08-17T05:57:10.985Z,14.38
2022-08-17T05:59:55.306Z,13.38
2022-08-17T06:02:38.870Z,12.93
2022-08-17T06:05:12.537Z,11.10
2022-08-17T06:07:57.234Z,12.57
2022-08-17T06:10:34.345Z,13.15
2022-08-17T06:13:28.609Z,17.00
2022-08-17T06:16:25.886Z,22.05
2022-08-17T06:19:11.077Z,17.08
2022-08-17T06:21:42.335Z,13.98
2022-08-17T06:24:32.603Z,19.58
2022-08-17T06:27:23.307Z,15.90
2022-08-17T06:30:10.883Z,13.32
2022-08-17T06:32:49.979Z,19.92
2022-08-17T06:35:31.883Z,17.80
2022-08-17T06:38:52.027Z,15.02
2022-08-17T06:41:30.141Z,19.88
2022-08-17T06:44:49.789Z,21.75
2022-08-17T06:47:28.542Z,24.92
2022-08-17T06:50:14.651Z,25.52
2022-08-17T06:53:22.563Z,22.45
2022-08-17T06:56:01.403Z,44.97
2022-08-17T06:58:31.561Z,37.17
2022-08-17T07:01:25.210Z,27.25
2022-08-17T07:06:49.387Z,24.20
2022-08-17T07:09:23.428Z,33.03
2022-08-17T07:11:55.271Z,30.23
2022-08-17T07:14:45.973Z,21.60
2022-08-17T07:17:17.265Z,27.95
2022-08-17T07:19:46.370Z,33.28
2022-08-17T07:22:57.211Z,22.90
2022-08-17T07:25:27.549Z,20.48
2022-08-17T07:27:56.426Z,28.30
2022-08-17T07:30:26.904Z,22.00
2022-08-17T07:33:00.245Z,21.40
2022-08-17T07:35:37.648Z,29.10
2022-08-17T07:38:24.661Z,22.27
2022-08-17T07:40:57.781Z,22.95
2022-08-17T07:43:26.149Z,26.90
2022-08-17T07:46:35.484Z,22.23
2022-08-17T07:49:07.990Z,23.02
2022-08-17T07:54:15.530Z,20.15
2022-08-17T07:56:46.759Z,31.23
2022-08-17T07:59:18.439Z,22.38
2022-08-17T08:02:02.381Z,25.60
2022-08-17T08:07:20.509Z,28.20
2022-08-17T08:10:12.296Z,29.95
2022-08-17T08:12:45.092Z,26.42
2022-08-17T08:15:18.842Z,27.90
2022-08-17T08:18:00.061Z,38.35
2022-08-17T08:20:57.741Z,34.35
2022-08-17T08:23:39.765Z,29.42
2022-08-17T08:26:21.232Z,27.20
2022-08-17T08:29:01.651Z,25.38
2022-08-17T08:31:43.389Z,35.53
2022-08-17T08:35:00.688Z,31.42
2022-08-17T08:37:51.998Z,26.38
2022-08-17T08:40:50.262Z,27.50
2022-08-17T08:43:32.197Z,27.40
2022-08-17T08:46:04.968Z,29.20
2022-08-17T08:48:53.786Z,26.55
2022-08-17T08:51:57.023Z,41.47
2022-08-17T08:54:37.715Z,25.10
2022-08-17T08:57:30.781Z,30.65
2022-08-17T09:00:13.026Z,26.83
2022-08-17T09:02:54.788Z,32.42
2022-08-17T09:06:06.593Z,31.60
2022-08-17T09:09:11.979Z,25.35
2022-08-17T09:12:01.238Z,27.65
2022-08-17T09:14:48.140Z,25.45
2022-08-17T09:17:36.591Z,22.33
2022-08-17T09:20:27.618Z,24.23
2022-08-17T09:23:18.855Z,25.05
2022-08-17T09:25:58.496Z,26.33
2022-08-17T09:28:39.732Z,21.17
2022-08-17T09:31:32.733Z,24.83
2022-08-17T09:34:13.377Z,26.17
2022-08-17T09:37:01.041Z,32.13
2022-08-17T09:39:39.058Z,28.10
2022-08-17T09:42:22.969Z,25.73
2022-08-17T09:45:12.722Z,17.88
2022-08-17T09:47:57.540Z,25.13
2022-08-17T09:51:03.159Z,17.85
2022-08-17T09:53:36.872Z,22.33
2022-08-17T09:56:06.452Z,21.35
2022-08-17T09:59:09.142Z,20.98
2022-08-17T10:01:44.184Z,19.13
2022-08-17T10:04:10.960Z,16.35
2022-08-17T10:06:54.334Z,20.73
2022-08-17T10:09:39.875Z,19.23
2022-08-17T10:12:47.143Z,18.42
2022-08-17T10:15:44.555Z,20.30
2022-08-17T10:18:17.319Z,17.63
2022-08-17T10:21:35.145Z,16.05
2022-08-17T10:25:13.513Z,24.73
2022-08-17T10:27:52.716Z,13.43
2022-08-17T10:30:23.493Z,21.42
2022-08-17T10:32:55.445Z,15.18
2022-08-17T10:35:47.825Z,14.13
2022-08-17T10:38:40.017Z,17.63
2022-08-17T10:41:33.137Z,16.10
2022-08-17T10:44:39.370Z,14.60
2022-08-17T10:46:55.569Z,14.10
2022-08-17T10:49:29.581Z,12.73
2022-08-17T10:52:02.776Z,16.95
2022-08-17T10:54:36.361Z,13.85
2022-08-17T10:57:22.987Z,11.88
2022-08-17T10:59:52.295Z,19.17
2022-08-17T11:02:50.300Z,22.55
2022-08-17T11:05:43.671Z,15.80
2022-08-17T11:08:42.865Z,16.02
2022-08-17T11:11:16.208Z,24.42
2022-08-17T11:14:04.087Z,12.70
2022-08-17T11:16:40.005Z,13.43
2022-08-17T11:19:16.086Z,13.52
2022-08-17T11:22:04.597Z,14.07
2022-08-17T11:24:34.976Z,19.95
2022-08-17T11:27:14.026Z,15.57
2022-08-17T11:30:01.434Z,11.18
2022-08-17T11:32:37.312Z,12.55
2022-08-17T11:35:43.814Z,15.32
2022-08-17T11:38:42.808Z,11.75
2022-08-17T11:41:41.236Z,13.02
2022-08-17T11:44:26.513Z,14.30
2022-08-17T11:47:23.826Z,13.43
2022-08-17T11:50:17.588Z,19.48
2022-08-17T11:52:48.165Z,12.98
2022-08-17T11:55:35.829Z,10.32
2022-08-17T11:58:37.547Z,10.07
2022-08-17T12:01:22.720Z,8.57
2022-08-17T12:03:56.966Z,9.50
2022-08-17T12:07:16.120Z,12.93
2022-08-17T12:09:47.833Z,12.32
2022-08-17T12:12:19.629Z,11.30
2022-08-17T12:15:10.206Z,7.60
2022-08-17T12:17:41.640Z,8.77
2022-08-17T12:20:28.564Z,10.88
2022-08-17T12:23:44.207Z,14.93
2022-08-17T12:26:17.847Z,13.25
2022-08-17T12:28:59.758Z,8.93
2022-08-17T12:31:34.414Z,10.65
2022-08-17T12:34:03.433Z,10.40
2022-08-17T12:36:32.656Z,11.00
2022-08-17T12:39:14.597Z,12.43
2022-08-17T12:41:50.556Z,14.75
2022-08-17T12:44:40.502Z,11.77
2022-08-17T12:47:22.582Z,11.00
2022-08-17T12:49:52.580Z,13.52
2022-08-17T12:52:24.722Z,13.07
2022-08-17T12:55:02.373Z,11.23
2022-08-17T12:57:35.008Z,11.73
2022-08-17T13:00:21.259Z,11.05
2022-08-17T13:03:02.222Z,14.77
2022-08-17T13:05:37.421Z,11.32
2022-08-17T13:08:16.968Z,7.70
2022-08-17T13:10:53.504Z,11.77
2022-08-17T13:13:27.417Z,5.88
2022-08-17T13:16:03.657Z,9.52
2022-08-17T13:18:40.435Z,8.88
2022-08-17T13:21:22.382Z,14.25
2022-08-17T13:24:04.625Z,7.95
2022-08-17T13:26:49.724Z,11.77
2022-08-17T13:29:25.545Z,8.65
2022-08-17T13:32:05.158Z,9.85
2022-08-17T13:35:12.013Z,8.30
2022-08-17T13:37:37.339Z,9.18
2022-08-17T13:40:09.906Z,11.40
2022-08-17T13:42:52.126Z,8.55
2022-08-17T13:45:36.066Z,17.42
2022-08-17T13:48:23.621Z,10.30
2022-08-17T13:50:56.571Z,8.10
2022-08-17T13:53:35.672Z,8.43
2022-08-17T13:56:37.192Z,7.78
2022-08-17T13:59:11.284Z,9.48
2022-08-17T14:01:41.164Z,10.40
2022-08-17T14:04:12.879Z,9.35
2022-08-17T14:06:54.377Z,10.40
2022-08-17T14:09:37.349Z,7.28
2022-08-17T14:12:10.563Z,7.18
2022-08-17T14:14:38.381Z,5.05
2022-08-17T14:17:05.897Z,5.53
2022-08-17T14:19:35.294Z,3.60
2022-08-17T14:22:03.254Z,4.75
2022-08-17T14:24:32.552Z,6.00
2022-08-17T14:27:00.636Z,6.70
2022-08-17T14:29:29.872Z,6.47
2022-08-17T14:31:58.251Z,5.60
2022-08-17T14:34:25.984Z,3.40
2022-08-17T14:36:53.083Z,5.00
2022-08-17T14:39:20.589Z,3.75
2022-08-17T14:41:47.886Z,3.42
2022-08-17T14:44:15.348Z,4.72
2022-08-17T14:46:44.783Z,4.22
2022-08-17T14:49:13.135Z,3.35
2022-08-17T14:51:44.110Z,3.65
2022-08-17T14:54:34.373Z,5.35
2022-08-17T14:57:22.857Z,3.90
2022-08-17T14:59:52.346Z,4.78
2022-08-17T15:02:29.994Z,10.88
2022-08-17T15:05:06.076Z,4.72
2022-08-17T15:07:33.127Z,3.38
2022-08-17T15:10:02.466Z,6.25
2022-08-17T15:12:34.594Z,4.82
2022-08-17T15:15:05.504Z,6.68
2022-08-17T15:17:44.961Z,6.07
2022-08-17T15:20:18.771Z,4.25
2022-08-17T15:22:49.639Z,7.82
2022-08-17T15:25:19.415Z,6.22
2022-08-17T15:27:46.355Z,7.38
2022-08-17T15:30:13.766Z,8.32
2022-08-17T15:32:47.506Z,6.38
2022-08-17T15:35:27.945Z,5.18
2022-08-17T15:38:08.104Z,5.75
2022-08-17T15:43:08.533Z,6.95
2022-08-17T15:45:35.397Z,4.55
2022-08-17T15:48:02.434Z,4.97
2022-08-17T15:50:29.556Z,4.82
2022-08-17T15:52:58.615Z,7.90
2022-08-17T15:55:27.408Z,5.95
2022-08-17T15:57:54.454Z,4.72
2022-08-17T16:00:24.118Z,5.63
2022-08-17T16:03:44.648Z,3.70
2022-08-17T16:05:38.057Z,3.90
2022-08-17T16:08:08.073Z,3.17
2022-08-17T16:10:36.096Z,3.17
2022-08-17T16:13:04.357Z,3.53
2022-08-17T16:15:32.103Z,3.15
2022-08-17T16:17:59.428Z,3.92
2022-08-17T16:20:26.522Z,3.85
2022-08-17T16:22:54.428Z,3.13
2022-08-17T16:25:53.026Z,3.10
2022-08-17T16:28:13.893Z,2.92
2022-08-17T16:30:41.315Z,4.68
2022-08-17T16:33:11.454Z,3.97
2022-08-17T16:35:38.793Z,4.35
2022-08-17T16:38:07.159Z,3.08
2022-08-17T16:40:35.886Z,2.83
2022-08-17T16:43:04.267Z,3.25
2022-08-17T16:45:36.768Z,5.25
2022-08-17T16:48:04.540Z,2.15
2022-08-17T16:50:32.276Z,7.40
2022-08-17T16:53:10.805Z,5.70
2022-08-17T16:55:38.759Z,3.83
2022-08-17T16:58:08.789Z,3.08
2022-08-17T17:00:36.718Z,2.78
2022-08-17T17:03:20.218Z,2.88
2022-08-17T17:05:59.203Z,4.55
2022-08-17T17:09:00.334Z,4.88
2022-08-17T17:11:33.688Z,4.07
2022-08-17T17:14:04.972Z,4.75
2022-08-17T17:16:36.958Z,5.13
2022-08-17T17:19:11.455Z,3.65
2022-08-17T17:21:59.117Z,2.90
2022-08-17T17:24:40.896Z,6.53
2022-08-17T17:27:19.618Z,4.53
2022-08-17T17:30:30.681Z,4.90
2022-08-17T17:33:12.214Z,9.20
2022-08-17T17:35:47.736Z,4.28
2022-08-17T17:38:29.445Z,5.40
2022-08-17T17:41:08.616Z,5.13
2022-08-17T17:43:40.172Z,3.92
2022-08-17T17:46:28.467Z,6.47
2022-08-17T17:48:57.537Z,4.45
2022-08-17T17:52:10.030Z,5.85
2022-08-17T17:54:55.561Z,5.22
2022-08-17T17:57:30.013Z,5.25
2022-08-17T18:00:03.594Z,4.97
2022-08-17T18:03:08.115Z,6.53
2022-08-17T18:05:47.210Z,4.63
2022-08-17T18:09:03.021Z,3.90
2022-08-17T18:11:51.516Z,6.53
2022-08-17T18:14:49.052Z,6.72
2022-08-17T18:17:15.795Z,7.47
2022-08-17T18:19:42.549Z,4.05
2022-08-17T18:22:14.822Z,5.63
2022-08-17T18:24:43.924Z,5.00
2022-08-17T18:27:20.031Z,4.63
2022-08-17T18:29:48.383Z,6.32
2022-08-17T18:32:50.445Z,7.93
2022-08-17T18:35:21.379Z,6.90
2022-08-17T18:37:54.192Z,4.65
2022-08-17T18:40:20.909Z,6.13
2022-08-17T18:42:58.730Z,6.47
2022-08-17T18:45:38.417Z,11.93
2022-08-17T18:48:24.871Z,5.82
2022-08-17T18:50:54.064Z,5.85
2022-08-17T18:53:34.418Z,4.95
2022-08-17T18:56:21.575Z,5.45
2022-08-17T18:59:12.553Z,7.35
2022-08-17T19:02:11.795Z,8.10
2022-08-17T19:05:10.178Z,6.18
2022-08-17T19:07:43.325Z,6.45
2022-08-17T19:10:46.464Z,5.85
2022-08-17T19:13:35.410Z,4.38
2022-08-17T19:16:10.132Z,6.03
2022-08-17T19:19:07.832Z,4.70
2022-08-17T19:21:41.690Z,6.65
2022-08-17T19:24:19.458Z,5.13
2022-08-17T19:27:03.269Z,3.78
2022-08-17T19:29:41.351Z,5.57
2022-08-17T19:32:10.282Z,5.90
2022-08-17T19:34:39.121Z,4.22
2022-08-17T19:37:15.258Z,5.20
2022-08-17T19:40:24.434Z,5.03
2022-08-17T19:42:59.865Z,10.15
2022-08-17T19:45:29.585Z,5.18
2022-08-17T19:48:14.897Z,3.40
2022-08-17T19:50:56.340Z,4.38
2022-08-17T19:54:04.506Z,5.10
2022-08-17T19:56:34.562Z,3.28
2022-08-17T19:59:20.168Z,4.05
2022-08-17T20:02:17.902Z,4.05
2022-08-17T20:04:48.168Z,6.20
2022-08-17T20:07:23.117Z,3.75
2022-08-17T20:09:54.099Z,5.60
2022-08-17T20:12:25.782Z,4.18
2022-08-17T20:14:56.024Z,3.20
2022-08-17T20:17:30.201Z,3.75
2022-08-17T20:20:05.115Z,5.40
2022-08-17T20:22:50.404Z,6.45
2022-08-17T20:25:47.972Z,5.45
2022-08-17T20:28:26.055Z,3.83
2022-08-17T20:30:53.121Z,3.95
2022-08-17T20:33:45.893Z,3.70
2022-08-17T20:36:23.983Z,4.35
2022-08-17T20:38:58.670Z,4.78
2022-08-17T20:41:30.658Z,5.80
2022-08-17T20:43:57.399Z,4.45
2022-08-17T20:46:27.154Z,6.68
2022-08-17T20:48:58.860Z,5.45
2022-08-17T20:51:27.338Z,5.47
2022-08-17T20:53:54.068Z,4.43
2022-08-17T20:56:43.352Z,5.75
2022-08-17T20:59:31.599Z,3.58
2022-08-17T21:02:18.067Z,7.72
2022-08-17T21:04:52.868Z,6.97
2022-08-17T21:07:43.117Z,7.55
2022-08-17T21:10:25.492Z,11.02
2022-08-17T21:13:13.350Z,5.30
2022-08-17T21:15:51.744Z,3.95
2022-08-17T21:18:50.993Z,7.22
2022-08-17T21:21:50.852Z,5.22
2022-08-17T21:24:32.775Z,5.57
2022-08-17T21:27:20.486Z,5.60
2022-08-17T21:30:12.752Z,8.65
2022-08-17T21:32:41.950Z,7.45
2022-08-17T21:35:28.967Z,4.78
2022-08-17T21:38:04.939Z,5.50
2022-08-17T21:40:33.960Z,6.25
2022-08-17T21:43:29.306Z,9.30
2022-08-17T21:46:23.299Z,4.53
2022-08-17T21:48:54.323Z,5.65
2022-08-17T21:51:26.099Z,9.48
2022-08-17T21:53:59.721Z,6.68
2022-08-17T21:56:47.849Z,7.47
2022-08-17T21:59:52.144Z,5.63
2022-08-17T22:02:26.933Z,11.40
2022-08-17T22:05:14.304Z,6.57
2022-08-17T22:07:41.531Z,4.32
2022-08-17T22:10:32.103Z,4.72
2022-08-17T22:13:06.159Z,8.30
2022-08-17T22:16:03.298Z,7.93
2022-08-17T22:18:42.760Z,5.88
2022-08-17T22:21:09.639Z,4.97
2022-08-17T22:24:05.407Z,7.88
2022-08-17T22:27:05.849Z,5.97
2022-08-17T22:29:57.588Z,5.05
2022-08-17T22:32:32.290Z,5.53
2022-08-17T22:35:32.737Z,7.03
2022-08-17T22:38:17.988Z,8.00
2022-08-17T22:40:53.843Z,7.00
2022-08-17T22:43:26.213Z,6.75
2022-08-17T22:45:57.622Z,4.15
2022-08-17T22:48:27.868Z,5.13
2022-08-17T22:51:27.413Z,8.02
2022-08-17T22:54:19.879Z,6.45
2022-08-17T22:57:18.953Z,6.80
2022-08-17T22:59:52.827Z,11.23
2022-08-17T23:02:21.690Z,5.63
2022-08-17T23:04:57.481Z,7.82
2022-08-17T23:07:24.575Z,3.88
2022-08-17T23:09:52.553Z,8.63
2022-08-17T23:12:26.466Z,6.45
2022-08-17T23:15:00.537Z,7.30
2022-08-17T23:17:33.871Z,4.38
2022-08-17T23:20:05.980Z,4.97
2022-08-17T23:22:33.216Z,5.53
2022-08-17T23:24:59.981Z,3.97
2022-08-17T23:27:29.424Z,8.07
2022-08-17T23:29:56.408Z,7.47
2022-08-17T23:32:23.630Z,9.57
2022-08-17T23:34:50.804Z,6.53
2022-08-17T23:37:19.675Z,5.60
2022-08-17T23:39:46.589Z,6.82
2022-08-17T23:42:21.701Z,6.30
2022-08-17T23:44:48.922Z,5.95
2022-08-17T23:47:16.173Z,6.80
2022-08-17T23:49:43.019Z,5.13
2022-08-17T23:52:16.417Z,5.80
2022-08-17T23:54:47.537Z,7.50
2022-08-17T23:57:16.987Z,4.90
2022-08-17T23:59:44.291Z,6.57
